String Prairie, Texas
Current Conditions -  °F | °C
As of 8:15 PM on Friday 28 Nov 2014 (Local Time) from K3T5 Reporting Station
Clear Clear  
Wind Chill: 61°   Ceiling: Unl
Heat Index: 61°   Visibility: 10mi
Dew Point: 54°   Wind: 8mph
Humidity: 76%   Direction: 170°S
Pressure: 30.11"   Gusts: NA
Location:  29.8725°N, 97.3223°W
Report Text: K3T5 290215Z AUTO 17007KT 10SM CLR 16/12 A3011 RMK AO2 T01620120
Loading
Personal Weather Stations






























Interactive Weather Map New forecast layout! Learn more

10-Day Weather Forecast

Advertisements
Track Severe Weather on mobile